sensor_id;sensor_type;location;lat;lon;timestamp;pressure;altitude;pressure_sealevel;temperature;humidity
59829;BME280;45708;51.848;107.620;2022-11-28T00:04:37;96847.03;;;-24.10;58.60
59829;BME280;45708;51.848;107.620;2022-11-28T00:09:38;96847.03;;;-24.10;58.88
59829;BME280;45708;51.848;107.620;2022-11-28T00:14:39;96863.66;;;-24.12;59.08
59829;BME280;45708;51.848;107.620;2022-11-28T00:19:40;96861.94;;;-24.16;58.64
59829;BME280;45708;51.848;107.620;2022-11-28T00:24:41;96871.84;;;-24.19;59.29
59829;BME280;45708;51.848;107.620;2022-11-28T00:29:44;96878.59;;;-24.15;59.10
59829;BME280;45708;51.848;107.620;2022-11-28T00:34:45;96881.97;;;-24.13;59.09
59829;BME280;45708;51.848;107.620;2022-11-28T00:39:46;96875.38;;;-24.08;59.15
59829;BME280;45708;51.848;107.620;2022-11-28T00:44:48;96874.75;;;-23.99;59.64
59829;BME280;45708;51.848;107.620;2022-11-28T00:49:49;96878.16;;;-23.94;59.27
59829;BME280;45708;51.848;107.620;2022-11-28T00:54:50;96889.84;;;-23.93;59.27
59829;BME280;45708;51.848;107.620;2022-11-28T00:59:51;96905.91;;;-23.80;58.89
59829;BME280;45708;51.848;107.620;2022-11-28T01:04:52;96892.47;;;-23.85;59.27
59829;BME280;45708;51.848;107.620;2022-11-28T01:09:56;96891.19;;;-23.65;58.84
59829;BME280;45708;51.848;107.620;2022-11-28T01:14:58;96886.38;;;-23.54;58.81
59829;BME280;45708;51.848;107.620;2022-11-28T01:19:58;96920.63;;;-23.49;59.21
59829;BME280;45708;51.848;107.620;2022-11-28T01:24:59;96917.50;;;-23.37;58.75
59829;BME280;45708;51.848;107.620;2022-11-28T01:30:00;96921.13;;;-23.21;58.75
59829;BME280;45708;51.848;107.620;2022-11-28T01:35:01;96915.63;;;-23.02;58.83
59829;BME280;45708;51.848;107.620;2022-11-28T01:40:02;96923.00;;;-23.08;58.72
59829;BME280;45708;51.848;107.620;2022-11-28T01:45:11;96928.16;;;-23.00;57.92
59829;BME280;45708;51.848;107.620;2022-11-28T01:50:13;96891.81;;;-23.28;58.04
59829;BME280;45708;51.848;107.620;2022-11-28T01:55:17;96945.88;;;-22.85;57.80
59829;BME280;45708;51.848;107.620;2022-11-28T02:00:22;96940.84;;;-22.88;56.84
59829;BME280;45708;51.848;107.620;2022-11-28T02:05:23;96901.91;;;-23.22;56.74
59829;BME280;45708;51.848;107.620;2022-11-28T02:21:22;96938.81;;;-22.56;55.58
59829;BME280;45708;51.848;107.620;2022-11-28T02:26:35;96956.91;;;-22.72;56.22
59829;BME280;45708;51.848;107.620;2022-11-28T02:37:07;96953.88;;;-22.55;55.41
59829;BME280;45708;51.848;107.620;2022-11-28T02:42:36;96954.78;;;-22.50;55.05
59829;BME280;45708;51.848;107.620;2022-11-28T02:48:08;96956.44;;;-22.50;55.57
59829;BME280;45708;51.848;107.620;2022-11-28T02:53:15;96950.00;;;-22.33;54.65
59829;BME280;45708;51.848;107.620;2022-11-28T02:58:19;96925.81;;;-22.32;54.64
59829;BME280;45708;51.848;107.620;2022-11-28T03:09:13;96961.22;;;-22.06;54.40
59829;BME280;45708;51.848;107.620;2022-11-28T03:19:58;96962.31;;;-21.86;53.74
59829;BME280;45708;51.848;107.620;2022-11-28T03:30:42;96954.47;;;-21.42;53.55
59829;BME280;45708;51.848;107.620;2022-11-28T03:35:52;96955.25;;;-21.46;54.11
59829;BME280;45708;51.848;107.620;2022-11-28T03:40:58;96946.88;;;-21.50;53.84
59829;BME280;45708;51.848;107.620;2022-11-28T03:46:07;96931.81;;;-21.48;53.60
59829;BME280;45708;51.848;107.620;2022-11-28T03:56:21;96917.88;;;-21.23;52.96
59829;BME280;45708;51.848;107.620;2022-11-28T04:18:01;96853.41;;;-21.29;50.99
59829;BME280;45708;51.848;107.620;2022-11-28T04:23:09;96780.25;;;-21.75;50.30
59829;BME280;45708;51.848;107.620;2022-11-28T04:28:15;96892.81;;;-21.19;50.98
59829;BME280;45708;51.848;107.620;2022-11-28T04:33:21;96774.38;;;-21.78;50.48
59829;BME280;45708;51.848;107.620;2022-11-28T04:38:26;96717.06;;;-22.33;50.47
59829;BME280;45708;51.848;107.620;2022-11-28T04:43:34;96899.59;;;-21.06;49.84
59829;BME280;45708;51.848;107.620;2022-11-28T04:48:38;96889.41;;;-21.24;50.05
59829;BME280;45708;51.848;107.620;2022-11-28T04:53:47;96892.75;;;-21.25;50.54
59829;BME280;45708;51.848;107.620;2022-11-28T04:58:50;96893.69;;;-21.11;51.08
59829;BME280;45708;51.848;107.620;2022-11-28T05:03:51;96904.63;;;-21.03;51.46
59829;BME280;45708;51.848;107.620;2022-11-28T05:08:52;96888.88;;;-20.86;51.38
59829;BME280;45708;51.848;107.620;2022-11-28T05:13:54;96881.41;;;-20.80;51.04
59829;BME280;45708;51.848;107.620;2022-11-28T05:18:55;96890.84;;;-20.50;51.35
59829;BME280;45708;51.848;107.620;2022-11-28T05:23:56;96886.63;;;-20.54;49.87
59829;BME280;45708;51.848;107.620;2022-11-28T05:28:57;96857.78;;;-21.04;50.63
59829;BME280;45708;51.848;107.620;2022-11-28T05:33:59;96898.22;;;-20.70;50.05
59829;BME280;45708;51.848;107.620;2022-11-28T05:39:00;96835.97;;;-21.11;49.48
59829;BME280;45708;51.848;107.620;2022-11-28T05:44:01;96684.56;;;-22.24;49.57
59829;BME280;45708;51.848;107.620;2022-11-28T05:49:02;96876.25;;;-20.99;49.65
59829;BME280;45708;51.848;107.620;2022-11-28T05:54:03;96862.78;;;-21.07;48.96
59829;BME280;45708;51.848;107.620;2022-11-28T05:59:04;96827.50;;;-21.22;49.63
59829;BME280;45708;51.848;107.620;2022-11-28T06:04:05;96876.28;;;-20.92;49.40
59829;BME280;45708;51.848;107.620;2022-11-28T06:09:06;96849.41;;;-21.03;49.14
59829;BME280;45708;51.848;107.620;2022-11-28T06:14:08;96837.69;;;-21.02;49.50
59829;BME280;45708;51.848;107.620;2022-11-28T06:19:11;96860.50;;;-20.81;49.63
59829;BME280;45708;51.848;107.620;2022-11-28T06:24:12;96844.66;;;-20.65;49.64
59829;BME280;45708;51.848;107.620;2022-11-28T06:29:13;96843.09;;;-20.52;48.90
59829;BME280;45708;51.848;107.620;2022-11-28T06:34:23;96846.41;;;-20.60;48.95
59829;BME280;45708;51.848;107.620;2022-11-28T06:39:24;96808.47;;;-21.00;49.10
59829;BME280;45708;51.848;107.620;2022-11-28T06:44:25;96832.00;;;-20.83;48.40
59829;BME280;45708;51.848;107.620;2022-11-28T06:49:25;96837.84;;;-20.85;48.57
59829;BME280;45708;51.848;107.620;2022-11-28T06:54:26;96841.16;;;-20.89;48.10
59829;BME280;45708;51.848;107.620;2022-11-28T06:59:28;96836.94;;;-20.98;48.55
59829;BME280;45708;51.848;107.620;2022-11-28T07:04:29;96844.41;;;-21.03;48.66
59829;BME280;45708;51.848;107.620;2022-11-28T07:09:30;96834.28;;;-21.12;47.95
59829;BME280;45708;51.848;107.620;2022-11-28T07:14:32;96833.44;;;-21.15;48.28
59829;BME280;45708;51.848;107.620;2022-11-28T07:19:33;96846.00;;;-21.11;47.99
59829;BME280;45708;51.848;107.620;2022-11-28T07:24:34;96845.81;;;-21.38;48.13
59829;BME280;45708;51.848;107.620;2022-11-28T07:29:34;96845.75;;;-21.44;48.83
59829;BME280;45708;51.848;107.620;2022-11-28T07:34:35;96842.34;;;-21.52;48.77
59829;BME280;45708;51.848;107.620;2022-11-28T07:39:36;96843.81;;;-21.70;49.13
59829;BME280;45708;51.848;107.620;2022-11-28T07:44:37;96835.22;;;-21.93;49.25
59829;BME280;45708;51.848;107.620;2022-11-28T07:49:38;96836.81;;;-22.01;49.54
59829;BME280;45708;51.848;107.620;2022-11-28T07:54:39;96831.56;;;-22.23;50.13
59829;BME280;45708;51.848;107.620;2022-11-28T07:59:40;96809.63;;;-22.42;50.05
59829;BME280;45708;51.848;107.620;2022-11-28T08:04:41;96866.50;;;-22.35;50.21
59829;BME280;45708;51.848;107.620;2022-11-28T08:09:42;96816.13;;;-22.58;50.10
59829;BME280;45708;51.848;107.620;2022-11-28T08:14:43;96811.94;;;-22.59;50.53
59829;BME280;45708;51.848;107.620;2022-11-28T08:19:44;96808.34;;;-22.77;50.36
59829;BME280;45708;51.848;107.620;2022-11-28T08:24:44;96838.63;;;-22.59;50.70
59829;BME280;45708;51.848;107.620;2022-11-28T08:29:45;96838.41;;;-22.74;50.88
59829;BME280;45708;51.848;107.620;2022-11-28T08:34:47;96820.66;;;-22.93;51.17
59829;BME280;45708;51.848;107.620;2022-11-28T08:39:47;96844.09;;;-22.88;51.71
59829;BME280;45708;51.848;107.620;2022-11-28T08:44:48;96857.50;;;-22.83;51.60
59829;BME280;45708;51.848;107.620;2022-11-28T08:49:49;96844.00;;;-22.94;51.50
59829;BME280;45708;51.848;107.620;2022-11-28T08:54:52;96845.69;;;-22.93;51.36
59829;BME280;45708;51.848;107.620;2022-11-28T08:59:52;96837.34;;;-22.92;51.29
59829;BME280;45708;51.848;107.620;2022-11-28T09:04:53;96844.19;;;-22.82;51.69
59829;BME280;45708;51.848;107.620;2022-11-28T09:09:54;96820.63;;;-22.96;52.39
59829;BME280;45708;51.848;107.620;2022-11-28T09:14:56;96790.28;;;-23.17;51.89
59829;BME280;45708;51.848;107.620;2022-11-28T09:19:57;96774.41;;;-23.21;52.25
59829;BME280;45708;51.848;107.620;2022-11-28T09:24:58;96844.31;;;-22.69;52.40
59829;BME280;45708;51.848;107.620;2022-11-28T09:29:59;96809.09;;;-22.85;52.32
59829;BME280;45708;51.848;107.620;2022-11-28T09:35:00;96778.72;;;-23.09;52.75
59829;BME280;45708;51.848;107.620;2022-11-28T09:40:02;96793.00;;;-23.02;52.82
59829;BME280;45708;51.848;107.620;2022-11-28T09:45:16;96844.47;;;-22.60;52.93
59829;BME280;45708;51.848;107.620;2022-11-28T09:50:27;96832.00;;;-22.56;52.79
59829;BME280;45708;51.848;107.620;2022-11-28T09:55:34;96799.25;;;-22.69;53.14
59829;BME280;45708;51.848;107.620;2022-11-28T10:00:39;96817.78;;;-22.58;52.94
59829;BME280;45708;51.848;107.620;2022-11-28T10:11:08;96827.84;;;-22.52;53.64
59829;BME280;45708;51.848;107.620;2022-11-28T10:21:40;96784.13;;;-22.78;53.46
59829;BME280;45708;51.848;107.620;2022-11-28T10:26:51;96801.00;;;-22.62;53.53
59829;BME280;45708;51.848;107.620;2022-11-28T10:32:00;96809.44;;;-22.59;53.72
59829;BME280;45708;51.848;107.620;2022-11-28T10:37:19;96794.38;;;-22.60;54.13
59829;BME280;45708;51.848;107.620;2022-11-28T10:42:38;96804.50;;;-22.51;54.07
59829;BME280;45708;51.848;107.620;2022-11-28T10:48:18;96815.38;;;-22.49;54.63
59829;BME280;45708;51.848;107.620;2022-11-28T10:53:50;96811.13;;;-22.56;54.19
59829;BME280;45708;51.848;107.620;2022-11-28T11:04:30;96821.81;;;-22.68;54.75
59829;BME280;45708;51.848;107.620;2022-11-28T11:09:33;96814.28;;;-22.69;54.80
59829;BME280;45708;51.848;107.620;2022-11-28T11:14:36;96809.22;;;-22.72;55.23
59829;BME280;45708;51.848;107.620;2022-11-28T11:19:39;96805.94;;;-22.68;55.51
59829;BME280;45708;51.848;107.620;2022-11-28T11:24:39;96812.59;;;-22.70;55.00
59829;BME280;45708;51.848;107.620;2022-11-28T11:29:40;96792.56;;;-22.70;55.45
59829;BME280;45708;51.848;107.620;2022-11-28T11:34:43;96789.22;;;-22.72;55.50
59829;BME280;45708;51.848;107.620;2022-11-28T11:39:51;96791.75;;;-22.69;54.88
59829;BME280;45708;51.848;107.620;2022-11-28T11:44:52;96772.56;;;-22.67;55.04
59829;BME280;45708;51.848;107.620;2022-11-28T11:50:02;96777.69;;;-22.61;54.87
59829;BME280;45708;51.848;107.620;2022-11-28T11:55:12;96688.59;;;-23.15;54.91
59829;BME280;45708;51.848;107.620;2022-11-28T12:05:27;96770.09;;;-22.64;55.09
59829;BME280;45708;51.848;107.620;2022-11-28T12:10:33;96765.94;;;-22.62;55.17
59829;BME280;45708;51.848;107.620;2022-11-28T12:42:26;96726.09;;;-22.45;55.63
59829;BME280;45708;51.848;107.620;2022-11-28T12:48:00;96722.88;;;-22.37;55.92
59829;BME280;45708;51.848;107.620;2022-11-28T12:53:31;96721.22;;;-22.35;55.48
59829;BME280;45708;51.848;107.620;2022-11-28T13:04:00;96718.72;;;-22.33;54.80
59829;BME280;45708;51.848;107.620;2022-11-28T13:14:33;96707.88;;;-22.34;54.99
59829;BME280;45708;51.848;107.620;2022-11-28T13:19:39;96716.25;;;-22.29;54.82
59829;BME280;45708;51.848;107.620;2022-11-28T13:35:21;96667.66;;;-22.46;54.36
59829;BME280;45708;51.848;107.620;2022-11-28T13:45:37;96650.06;;;-22.52;54.74
59829;BME280;45708;51.848;107.620;2022-11-28T13:50:40;96647.56;;;-22.54;54.63
59829;BME280;45708;51.848;107.620;2022-11-28T14:01:16;96643.44;;;-22.48;54.91
59829;BME280;45708;51.848;107.620;2022-11-28T14:06:20;96623.38;;;-22.50;55.06
59829;BME280;45708;51.848;107.620;2022-11-28T14:22:18;96631.09;;;-22.29;54.50
59829;BME280;45708;51.848;107.620;2022-11-28T14:27:31;96632.94;;;-22.03;54.66
59829;BME280;45708;51.848;107.620;2022-11-28T14:32:38;96658.94;;;-21.92;54.71
59829;BME280;45708;51.848;107.620;2022-11-28T14:37:52;96655.53;;;-22.02;55.19
59829;BME280;45708;51.848;107.620;2022-11-28T14:43:20;96655.63;;;-21.90;55.84
59829;BME280;45708;51.848;107.620;2022-11-28T14:53:44;96653.97;;;-21.84;55.83
59829;BME280;45708;51.848;107.620;2022-11-28T14:58:46;96639.78;;;-21.84;55.82
59829;BME280;45708;51.848;107.620;2022-11-28T15:15:04;96599.53;;;-22.05;57.19
59829;BME280;45708;51.848;107.620;2022-11-28T15:20:16;96638.94;;;-21.84;57.54
59829;BME280;45708;51.848;107.620;2022-11-28T15:25:25;96635.59;;;-21.83;57.38
59829;BME280;45708;51.848;107.620;2022-11-28T15:30:26;96623.13;;;-21.79;58.13
59829;BME280;45708;51.848;107.620;2022-11-28T15:35:27;96461.31;;;-22.68;58.97
59829;BME280;45708;51.848;107.620;2022-11-28T15:40:33;96582.94;;;-21.85;59.80
59829;BME280;45708;51.848;107.620;2022-11-28T15:45:35;96577.19;;;-21.76;60.44
59829;BME280;45708;51.848;107.620;2022-11-28T15:50:36;96531.00;;;-22.13;60.52
59829;BME280;45708;51.848;107.620;2022-11-28T15:55:37;96532.75;;;-22.00;61.04
59829;BME280;45708;51.848;107.620;2022-11-28T16:00:40;96551.28;;;-21.74;61.33
59829;BME280;45708;51.848;107.620;2022-11-28T16:05:44;96508.56;;;-21.94;61.59
59829;BME280;45708;51.848;107.620;2022-11-28T16:10:47;96543.03;;;-21.51;61.92
59829;BME280;45708;51.848;107.620;2022-11-28T16:15:49;96512.03;;;-21.63;62.83
59829;BME280;45708;51.848;107.620;2022-11-28T16:20:51;96456.78;;;-21.89;63.06
59829;BME280;45708;51.848;107.620;2022-11-28T16:26:03;96488.69;;;-21.59;63.68
59829;BME280;45708;51.848;107.620;2022-11-28T16:31:12;96473.72;;;-21.34;64.19
59829;BME280;45708;51.848;107.620;2022-11-28T16:41:29;96342.25;;;-22.03;64.99
59829;BME280;45708;51.848;107.620;2022-11-28T16:46:37;96471.22;;;-21.25;65.79
59829;BME280;45708;51.848;107.620;2022-11-28T16:51:39;96427.72;;;-21.27;65.50
59829;BME280;45708;51.848;107.620;2022-11-28T16:56:42;96446.97;;;-21.11;66.14
59829;BME280;45708;51.848;107.620;2022-11-28T17:01:45;96434.41;;;-21.05;65.93
59829;BME280;45708;51.848;107.620;2022-11-28T17:06:46;96406.81;;;-21.28;66.09
59829;BME280;45708;51.848;107.620;2022-11-28T17:12:13;96365.81;;;-21.46;65.96
59829;BME280;45708;51.848;107.620;2022-11-28T17:17:17;96446.16;;;-20.95;66.39
59829;BME280;45708;51.848;107.620;2022-11-28T17:22:20;96456.19;;;-20.85;66.58
59829;BME280;45708;51.848;107.620;2022-11-28T17:27:22;96432.75;;;-20.98;66.23
59829;BME280;45708;51.848;107.620;2022-11-28T17:32:23;96421.84;;;-21.03;66.65
59829;BME280;45708;51.848;107.620;2022-11-28T17:37:24;96421.03;;;-20.98;66.42
59829;BME280;45708;51.848;107.620;2022-11-28T17:42:25;96417.72;;;-20.78;67.07
59829;BME280;45708;51.848;107.620;2022-11-28T17:47:26;96411.00;;;-20.82;67.23
59829;BME280;45708;51.848;107.620;2022-11-28T17:52:27;96407.63;;;-20.68;67.30
59829;BME280;45708;51.848;107.620;2022-11-28T17:57:29;96419.34;;;-20.67;67.51
59829;BME280;45708;51.848;107.620;2022-11-28T18:02:30;96411.00;;;-20.67;67.47
59829;BME280;45708;51.848;107.620;2022-11-28T18:07:31;96394.25;;;-20.59;67.74
59829;BME280;45708;51.848;107.620;2022-11-28T18:12:32;96379.16;;;-20.47;67.58
59829;BME280;45708;51.848;107.620;2022-11-28T18:17:33;96390.06;;;-20.65;67.55
59829;BME280;45708;51.848;107.620;2022-11-28T18:22:34;96385.88;;;-20.58;67.84
59829;BME280;45708;51.848;107.620;2022-11-28T18:27:35;96364.06;;;-20.44;68.22
59829;BME280;45708;51.848;107.620;2022-11-28T18:32:36;96374.09;;;-20.36;67.99
59829;BME280;45708;51.848;107.620;2022-11-28T18:37:37;96350.66;;;-20.46;68.17
59829;BME280;45708;51.848;107.620;2022-11-28T18:42:38;96362.41;;;-20.51;68.06
59829;BME280;45708;51.848;107.620;2022-11-28T18:47:39;96363.25;;;-20.49;68.19
59829;BME280;45708;51.848;107.620;2022-11-28T18:52:40;96342.34;;;-20.55;68.29
59829;BME280;45708;51.848;107.620;2022-11-28T18:57:41;96352.25;;;-20.26;68.82
59829;BME280;45708;51.848;107.620;2022-11-28T19:02:41;96333.06;;;-20.44;68.20
59829;BME280;45708;51.848;107.620;2022-11-28T19:07:42;96343.91;;;-20.32;68.26
59829;BME280;45708;51.848;107.620;2022-11-28T19:12:43;96327.16;;;-20.29;68.43
59829;BME280;45708;51.848;107.620;2022-11-28T19:17:44;96307.13;;;-20.48;68.34
59829;BME280;45708;51.848;107.620;2022-11-28T19:22:45;96308.63;;;-20.07;68.44
59829;BME280;45708;51.848;107.620;2022-11-28T19:27:46;96320.38;;;-20.12;68.92
59829;BME280;45708;51.848;107.620;2022-11-28T19:32:47;96303.59;;;-20.07;68.87
59829;BME280;45708;51.848;107.620;2022-11-28T19:37:48;96293.59;;;-20.16;68.85
59829;BME280;45708;51.848;107.620;2022-11-28T19:42:49;96294.41;;;-20.13;69.52
59829;BME280;45708;51.848;107.620;2022-11-28T19:47:50;96266.88;;;-20.39;69.46
59829;BME280;45708;51.848;107.620;2022-11-28T19:52:51;96288.59;;;-20.19;69.81
59829;BME280;45708;51.848;107.620;2022-11-28T19:57:52;96280.25;;;-20.30;69.27
59829;BME280;45708;51.848;107.620;2022-11-28T20:02:53;96273.50;;;-20.25;69.78
59829;BME280;45708;51.848;107.620;2022-11-28T20:07:54;96267.56;;;-20.08;70.13
59829;BME280;45708;51.848;107.620;2022-11-28T20:12:55;96258.34;;;-20.01;69.72
59829;BME280;45708;51.848;107.620;2022-11-28T20:17:56;96242.41;;;-20.05;69.89
59829;BME280;45708;51.848;107.620;2022-11-28T20:22:57;96253.22;;;-19.89;68.77
59829;BME280;45708;51.848;107.620;2022-11-28T20:27:58;96253.28;;;-19.96;69.14
59829;BME280;45708;51.848;107.620;2022-11-28T20:33:00;96256.59;;;-19.91;69.13
59829;BME280;45708;51.848;107.620;2022-11-28T20:38:01;96256.63;;;-19.96;68.86
59829;BME280;45708;51.848;107.620;2022-11-28T20:43:03;96254.94;;;-19.97;68.52
59829;BME280;45708;51.848;107.620;2022-11-28T20:48:04;96244.91;;;-20.00;68.11
59829;BME280;45708;51.848;107.620;2022-11-28T20:53:05;96255.81;;;-19.99;67.51
59829;BME280;45708;51.848;107.620;2022-11-28T20:58:06;96242.44;;;-20.08;67.09
59829;BME280;45708;51.848;107.620;2022-11-28T21:03:07;96244.19;;;-20.20;67.25
59829;BME280;45708;51.848;107.620;2022-11-28T21:08:08;96245.00;;;-20.15;67.40
59829;BME280;45708;51.848;107.620;2022-11-28T21:13:09;96241.63;;;-20.14;66.86
59829;BME280;45708;51.848;107.620;2022-11-28T21:18:12;96233.28;;;-20.16;67.28
59829;BME280;45708;51.848;107.620;2022-11-28T21:23:15;96236.63;;;-20.23;67.17
59829;BME280;45708;51.848;107.620;2022-11-28T21:28:16;96237.44;;;-20.14;66.35
59829;BME280;45708;51.848;107.620;2022-11-28T21:33:17;96226.59;;;-20.26;66.42
59829;BME280;45708;51.848;107.620;2022-11-28T21:38:18;96251.72;;;-20.23;66.90
59829;BME280;45708;51.848;107.620;2022-11-28T21:43:20;96235.88;;;-20.36;66.46
59829;BME280;45708;51.848;107.620;2022-11-28T21:48:22;96234.97;;;-20.26;66.93
59829;BME280;45708;51.848;107.620;2022-11-28T21:53:24;96236.66;;;-20.26;67.28
59829;BME280;45708;51.848;107.620;2022-11-28T21:58:25;96235.03;;;-20.34;66.96
59829;BME280;45708;51.848;107.620;2022-11-28T22:03:27;96235.78;;;-20.22;67.37
59829;BME280;45708;51.848;107.620;2022-11-28T22:08:29;96216.63;;;-20.36;67.42
59829;BME280;45708;51.848;107.620;2022-11-28T22:13:30;96212.41;;;-20.30;66.65
59829;BME280;45708;51.848;107.620;2022-11-28T22:18:31;96231.56;;;-20.11;67.47
59829;BME280;45708;51.848;107.620;2022-11-28T22:23:33;96227.41;;;-20.23;66.88
59829;BME280;45708;51.848;107.620;2022-11-28T22:28:36;96222.41;;;-20.18;67.07
59829;BME280;45708;51.848;107.620;2022-11-28T22:33:38;96223.19;;;-20.13;67.18
59829;BME280;45708;51.848;107.620;2022-11-28T22:38:40;96228.19;;;-20.07;67.29
59829;BME280;45708;51.848;107.620;2022-11-28T22:43:41;96234.84;;;-19.97;66.72
59829;BME280;45708;51.848;107.620;2022-11-28T22:48:43;96228.22;;;-20.13;66.48
59829;BME280;45708;51.848;107.620;2022-11-28T22:53:44;96220.69;;;-20.16;66.51
59829;BME280;45708;51.848;107.620;2022-11-28T22:58:45;96226.50;;;-20.08;66.01
59829;BME280;45708;51.848;107.620;2022-11-28T23:03:47;96231.53;;;-20.08;66.45
59829;BME280;45708;51.848;107.620;2022-11-28T23:08:48;96214.75;;;-20.03;66.20
59829;BME280;45708;51.848;107.620;2022-11-28T23:13:50;96213.09;;;-20.01;66.42
59829;BME280;45708;51.848;107.620;2022-11-28T23:18:54;96213.13;;;-20.10;66.86
59829;BME280;45708;51.848;107.620;2022-11-28T23:23:56;96233.97;;;-19.93;65.83
59829;BME280;45708;51.848;107.620;2022-11-28T23:29:00;96230.69;;;-20.01;66.21
59829;BME280;45708;51.848;107.620;2022-11-28T23:34:01;96235.66;;;-19.93;66.36
59829;BME280;45708;51.848;107.620;2022-11-28T23:39:09;96228.16;;;-19.98;66.83
59829;BME280;45708;51.848;107.620;2022-11-28T23:44:12;96225.59;;;-19.95;66.49
59829;BME280;45708;51.848;107.620;2022-11-28T23:49:13;96226.38;;;-19.88;66.54
59829;BME280;45708;51.848;107.620;2022-11-28T23:54:14;96208.75;;;-19.84;67.01
59829;BME280;45708;51.848;107.620;2022-11-28T23:59:16;96202.94;;;-19.89;66.19
